AirNav   Pilot Hours Calculator
 
 1231 users online  

12PS Siple Heliport
Lewisville, Pennsylvania, USA

GOING TO LEWISVILLE?


FAA INFORMATION EFFECTIVE 07 NOVEMBER 2019

Location

FAA Identifier: 12PS
Lat/Long: 39-43-25.6000N 075-52-53.0000W
39-43.426667N 075-52.883333W
39.7237778,-75.8813889
(estimated)
Elevation: 419 ft. / 128 m (estimated)
From city: 1 mile W of LEWISVILLE, PA
Time zone: UTC -5 (UTC -4 during Daylight Saving Time)
Zip code: 19352

Heliport Operations

Heliport use: Private use. Permission required prior to landing
Activation date: 08/2004
Control tower: no
ARTCC: NEW YORK CENTER
FSS: NEW YORK FLIGHT SERVICE STATION
Attendance: UNATNDD
Wind indicator: yes
Segmented circle: no

Heliport Communications

WX ASOS at ILG (13 nm E): PHONE 302-328-1536
WX AWOS-3 at EVY (14 nm SE): 132.325 (302-378-2063)
WX AWOS-3 at MQS (15 nm N): 126.25 (610-384-6132)

Nearby radio navigation aids

VOR radial/distance  VOR name  Freq  Var
DQOr292/13.0DUPONT VORTAC114.0010W
MXEr229/15.2MODENA VORTAC113.2009W
OODr291/27.2WOODSTOWN VORTAC112.8010W
LRPr151/30.3LANCASTER VOR/DME117.3009W
PTWr215/33.4POTTSTOWN VORTAC116.5009W
ENOr339/34.0SMYRNA VORTAC111.4009W

 
NDB name  Hdg/Dist  Freq  Var  ID
AMBLER241/36.527512WING .. -. --.
RAINBOW309/39.136311WRNB .-. -. -...

Heliport Services

Runway Information

Helipad H1

Dimensions: 65 x 65 ft. / 20 x 20 m
Surface: turf
Traffic pattern: leftleft
Markings: basic

Heliport Ownership and Management from official FAA records

Ownership: Privately-owned
Owner: TIMOTHY A. SIPLE
P.O. BOX 46;, 2658 LEWISVILLE RD
LEWISVILLE, PA 19351
Phone 610-932-5047
Manager: TIMOTHY A. SIPLE
P.O. BOX 46;, 2658 LEWISVILLE RD
LEWISVILLE, PA 19351
Phone 610-932-5047

Heliport Operational Statistics

Aircraft based on the field: 1
Helicopters: 1
    

Additional Remarks

FOR CD CTC PHILADELPHIA APCH AT 800-354-9884.

Instrument Procedures

There are no published instrument procedures at 12PS.

Some nearby airports with instrument procedures:

N57 - New Garden Airport (8 nm NE)
58M - Claremont Airport (9 nm S)
KILG - New Castle Airport (13 nm E)
KEVY - Summit Airport (14 nm SE)
KMQS - Chester County G O Carlson Airport (15 nm N)
0W3 - Harford County Airport (18 nm SW)
 
Loc | Ops | Rwys | IFR | FBO | Links
Com | Nav | Svcs | Stats | Notes
Area around 12PS (Siple Heliport)
 
Road maps at: MapQuest Bing Google
 
Aerial photo
No photo
 
Sectional chart

 
Airport distance calculator
Flying to Siple Heliport? Find the distance to fly.

From to 12PS

Sunrise and sunset
Times for 21-Nov-2019
 Local
(UTC-5)
 Zulu
(UTC)
Morning civil twilight06:2711:27
Sunrise06:5611:56
Sunset16:4321:43
Evening civil twilight17:1222:12

Current date and time
Zulu (UTC)  21-Nov-2019 14:36:41
Local (UTC-5)  21-Nov-2019 09:36:41
 
METAR
KILG 
13nm E 
211351Z 31006KT 10SM CLR 07/M01 A3025 RMK AO2 SLP243 T00671011 $
KMQS 
15nm N 
211415Z AUTO 31008KT 10SM CLR 05/M00 A3024 RMK AO2
KAPG 
18nm SW 
211153Z 23003KT 9SM CLR 01/M02 A3026 RMK SLP251 50013
KOQN 
21nm NE 
211415Z AUTO 32004KT 10SM 06/00 A3022 RMK AO2
TAF
KILG 
13nm E 
211120Z 2112/2212 31006KT P6SM SKC FM211800 26007KT P6SM SCT200 FM212300 19006KT P6SM BKN200 FM221000 20005KT P6SM OVC080
NOTAMs
Click for the latest NOTAMs
NOTAMs are issued by the DoD/FAA and will open in a separate window not controlled by AirNav.

 

 
 

Would you like to see your business listed on this page?

 If your business provides an interesting product or service to pilots, flight crews, aircraft, or users of the Siple Heliport, you should consider listing it here.  To start the listing process, click on the button below
 
Add a business
 

Other Pages about Siple Heliport

Update a link
 
Copyright © AirNav, LLC. All rights reserved. Privacy Policy  Contact